createdAt,value
2018-12-17T11:40:25.492Z,86.40
2018-12-17T11:42:30.001Z,85.90
2018-12-17T11:44:34.355Z,85.90
2018-12-17T11:46:38.787Z,86.40
2018-12-17T11:48:43.251Z,86.90
2018-12-17T11:50:50.443Z,85.20
2018-12-17T11:52:55.562Z,86.50
2018-12-17T11:55:00.031Z,86.70
2018-12-17T11:57:33.134Z,86.20
2018-12-17T11:59:38.302Z,87.00
2018-12-17T12:01:42.743Z,87.00
2018-12-17T12:03:47.177Z,86.50
2018-12-17T12:05:51.626Z,87.40
2018-12-17T12:07:56.217Z,87.10
2018-12-17T12:10:00.597Z,87.10
2018-12-17T12:12:05.275Z,87.30
2018-12-17T12:14:09.881Z,87.10
2018-12-17T12:16:14.434Z,87.10
2018-12-17T12:18:18.876Z,87.30
2018-12-17T12:20:23.384Z,87.50
2018-12-17T12:22:27.851Z,87.10
2018-12-17T12:24:32.398Z,87.20
2018-12-17T12:26:36.884Z,87.50
2018-12-17T12:28:41.297Z,87.50
2018-12-17T12:30:45.798Z,87.80
2018-12-17T12:32:50.211Z,87.70
2018-12-17T12:34:54.772Z,87.70
2018-12-17T12:37:00.003Z,87.20
2018-12-17T12:39:04.595Z,87.70
2018-12-17T12:41:09.110Z,87.70
2018-12-17T12:43:13.659Z,87.60
2018-12-17T12:45:18.111Z,87.40
2018-12-17T12:47:22.552Z,87.40
2018-12-17T12:49:27.010Z,87.60
2018-12-17T12:51:32.739Z,88.20
2018-12-17T12:53:35.870Z,87.90
2018-12-17T12:55:40.355Z,87.90
2018-12-17T12:57:44.908Z,87.90
2018-12-17T12:59:50.163Z,87.80
2018-12-17T13:01:54.682Z,88.20
2018-12-17T13:03:59.207Z,87.70
2018-12-17T13:06:04.682Z,87.90
2018-12-17T13:08:09.267Z,88.10
2018-12-17T13:10:13.766Z,87.70
2018-12-17T13:12:18.370Z,87.90
2018-12-17T13:14:22.964Z,88.30
2018-12-17T13:16:27.373Z,88.20
2018-12-17T13:18:32.260Z,88.20
2018-12-17T13:20:36.759Z,87.60
2018-12-17T13:22:41.869Z,87.60
2018-12-17T13:24:46.392Z,88.10
2018-12-17T13:26:50.905Z,88.00
2018-12-17T13:29:01.882Z,88.00
2018-12-17T13:31:06.443Z,87.80
2018-12-17T13:33:11.076Z,87.90
2018-12-17T13:35:15.615Z,87.50
2018-12-17T13:37:21.315Z,88.10
2018-12-17T13:39:26.421Z,87.60
2018-12-17T13:41:30.911Z,88.10
2018-12-17T13:43:35.486Z,88.50
2018-12-17T13:45:39.870Z,87.90
2018-12-17T13:47:44.271Z,87.90
2018-12-17T13:49:48.878Z,88.30
2018-12-17T13:51:58.439Z,88.40
2018-12-17T13:54:02.975Z,88.30
2018-12-17T13:56:07.414Z,88.50
2018-12-17T13:58:11.861Z,88.10
2018-12-17T14:00:16.294Z,88.20
2018-12-17T14:02:20.796Z,87.70
2018-12-17T14:04:25.239Z,88.30
2018-12-17T14:06:29.683Z,88.10
2018-12-17T14:08:34.080Z,88.10
2018-12-17T14:10:43.778Z,88.10
2018-12-17T14:12:48.164Z,88.10
2018-12-17T14:14:52.630Z,87.90
2018-12-17T14:17:02.275Z,87.60
2018-12-17T14:19:11.859Z,88.00
2018-12-17T14:21:21.631Z,88.00
2018-12-17T14:23:26.015Z,88.10
2018-12-17T14:25:30.512Z,88.60
2018-12-17T14:27:34.899Z,88.40
2018-12-17T14:29:39.303Z,88.30
2018-12-17T14:31:44.986Z,88.10
2018-12-17T14:33:49.734Z,88.10
2018-12-17T14:36:05.686Z,87.70
2018-12-17T14:38:10.042Z,87.60
2018-12-17T14:40:14.508Z,87.60
2018-12-17T14:42:18.899Z,87.30
2018-12-17T14:44:28.597Z,87.40
2018-12-17T14:46:37.111Z,87.40
2018-12-17T14:48:41.505Z,87.40
2018-12-17T14:50:45.915Z,87.40
2018-12-17T14:52:51.657Z,87.50
2018-12-17T14:54:58.605Z,87.50
2018-12-17T14:57:03.074Z,87.50
2018-12-17T14:59:07.440Z,87.60
2018-12-17T15:01:11.955Z,87.30
2018-12-17T15:03:16.393Z,87.70
2018-12-17T15:05:20.802Z,87.20
2018-12-17T15:07:25.198Z,87.20
2018-12-17T15:09:29.663Z,87.40
2018-12-17T15:11:34.070Z,87.30
2018-12-17T15:13:38.586Z,87.30
2018-12-17T15:15:42.966Z,87.70
2018-12-17T15:17:47.389Z,87.60
2018-12-17T15:19:51.901Z,87.70
2018-12-17T15:21:56.433Z,87.50
2018-12-17T15:24:02.895Z,87.40
2018-12-17T15:26:07.418Z,87.80
2018-12-17T15:28:11.775Z,87.70
2018-12-17T15:30:16.157Z,87.80
2018-12-17T15:32:20.579Z,87.80
2018-12-17T15:34:25.010Z,88.10
2018-12-17T15:36:29.501Z,88.10
2018-12-17T15:38:34.002Z,88.60
2018-12-17T15:40:38.475Z,88.60
2018-12-17T15:42:43.080Z,88.40
2018-12-17T15:44:47.483Z,88.60
2018-12-17T15:46:51.926Z,88.10
2018-12-17T15:48:56.370Z,88.30
2018-12-17T15:51:00.919Z,88.20
2018-12-17T15:53:05.402Z,88.10
2018-12-17T15:55:09.881Z,88.10
2018-12-17T15:57:15.245Z,88.60
2018-12-17T15:59:19.736Z,88.20
2018-12-17T16:01:24.321Z,88.20
2018-12-17T16:03:30.052Z,89.20
2018-12-17T16:05:34.528Z,88.40
2018-12-17T16:07:38.998Z,88.80
2018-12-17T16:09:43.397Z,89.60
2018-12-17T16:11:47.815Z,89.10
2018-12-17T16:13:52.182Z,88.80
2018-12-17T16:15:56.703Z,89.30
2018-12-17T16:18:01.183Z,89.50
2018-12-17T16:20:06.277Z,89.40
2018-12-17T16:22:10.691Z,89.40
2018-12-17T16:24:15.241Z,89.20
2018-12-17T16:26:19.693Z,89.20
2018-12-17T16:28:24.097Z,89.60
2018-12-17T16:30:28.490Z,89.30
2018-12-17T16:32:33.570Z,89.40
2018-12-17T16:34:37.932Z,89.60
2018-12-17T16:36:42.538Z,89.40
2018-12-17T16:38:48.802Z,89.60
2018-12-17T16:40:53.191Z,90.00
2018-12-17T16:42:57.791Z,90.00
2018-12-17T16:45:02.282Z,89.20
2018-12-17T16:47:06.906Z,89.70
2018-12-17T16:49:11.406Z,89.80
2018-12-17T16:51:15.790Z,89.10
2018-12-17T16:53:20.248Z,90.00
2018-12-17T16:55:24.711Z,89.40
2018-12-17T16:57:29.262Z,89.70
2018-12-17T16:59:34.226Z,89.70
2018-12-17T17:01:38.588Z,89.50
2018-12-17T17:03:43.098Z,89.70
2018-12-17T17:05:47.520Z,89.60
2018-12-17T17:07:52.474Z,89.60
2018-12-17T17:10:01.015Z,89.60
2018-12-17T17:12:05.459Z,89.60
2018-12-17T17:14:09.919Z,89.60
2018-12-17T17:16:14.462Z,89.50
2018-12-17T17:18:18.983Z,89.40
2018-12-17T17:20:23.436Z,89.20
2018-12-17T17:22:28.001Z,89.60
2018-12-17T17:24:32.608Z,89.50
2018-12-17T17:26:38.116Z,89.60
2018-12-17T17:28:42.586Z,89.50
2018-12-17T17:30:46.985Z,89.30
2018-12-17T17:32:51.484Z,89.50
2018-12-17T17:34:56.026Z,89.30
2018-12-17T17:37:00.604Z,89.40
2018-12-17T17:39:07.030Z,89.70
2018-12-17T17:41:11.579Z,89.40
2018-12-17T17:43:16.198Z,89.20
2018-12-17T17:45:20.762Z,89.30
2018-12-17T17:47:25.523Z,89.30
2018-12-17T17:49:31.636Z,89.70
2018-12-17T17:51:37.367Z,89.40
2018-12-17T17:53:41.992Z,89.40
2018-12-17T17:55:46.738Z,89.20
2018-12-17T17:57:51.415Z,89.20
2018-12-17T17:59:56.083Z,89.50
2018-12-17T18:02:00.722Z,89.40
2018-12-17T18:04:05.345Z,89.50
2018-12-17T18:06:16.071Z,89.40
2018-12-17T18:08:16.151Z,89.40
2018-12-17T18:10:20.800Z,89.80
2018-12-17T18:12:26.014Z,89.40
2018-12-17T18:14:30.667Z,89.50
2018-12-17T18:16:35.163Z,89.40
2018-12-17T18:18:41.099Z,89.50
2018-12-17T18:20:45.756Z,89.30
2018-12-17T18:22:50.412Z,89.20
2018-12-17T18:24:55.110Z,89.40
2018-12-17T18:26:59.782Z,89.20
2018-12-17T18:29:05.189Z,89.20
2018-12-17T18:31:09.720Z,89.20
2018-12-17T18:33:14.242Z,89.30
2018-12-17T18:35:18.923Z,89.20
2018-12-17T18:37:23.413Z,89.10
2018-12-17T18:39:27.845Z,88.90
2018-12-17T18:41:33.152Z,89.10
2018-12-17T18:43:37.703Z,89.10
2018-12-17T18:45:42.855Z,88.90
2018-12-17T18:47:47.867Z,88.80
2018-12-17T18:49:52.391Z,88.90
2018-12-17T18:51:57.580Z,88.80
2018-12-17T18:54:02.111Z,88.80
2018-12-17T18:56:09.669Z,88.80
2018-12-17T18:58:14.184Z,88.70
2018-12-17T19:00:19.415Z,88.70
2018-12-17T19:02:23.900Z,88.50
2018-12-17T19:04:28.475Z,88.70
2018-12-17T19:06:33.055Z,88.60
2018-12-17T19:08:37.567Z,88.50
2018-12-17T19:10:47.128Z,88.50
2018-12-17T19:12:52.540Z,88.60
2018-12-17T19:14:56.983Z,88.40
2018-12-17T19:17:01.594Z,88.30
2018-12-17T19:19:05.994Z,88.50
2018-12-17T19:21:10.490Z,88.50
2018-12-17T19:23:15.080Z,88.60
2018-12-17T19:25:19.679Z,88.50
2018-12-17T19:27:24.248Z,88.50
2018-12-17T19:29:29.161Z,88.50
2018-12-17T19:31:34.718Z,88.60
2018-12-17T19:33:38.227Z,88.70
2018-12-17T19:35:42.697Z,88.70
2018-12-17T19:37:47.934Z,88.70
2018-12-17T19:40:23.111Z,88.40
2018-12-17T19:42:27.684Z,88.50
2018-12-17T19:44:32.181Z,88.60
2018-12-17T19:46:36.627Z,88.30
2018-12-17T19:48:41.151Z,88.40
2018-12-17T19:50:45.822Z,88.30
2018-12-17T19:52:50.307Z,88.30
2018-12-17T19:54:54.828Z,88.30
2018-12-17T19:56:59.356Z,88.40
2018-12-17T19:59:03.830Z,88.40
2018-12-17T20:01:08.274Z,88.30
2018-12-17T20:03:12.799Z,88.20
2018-12-17T20:05:17.199Z,88.30
2018-12-17T20:07:21.773Z,88.30
2018-12-17T20:09:26.310Z,88.30
2018-12-17T20:11:30.873Z,88.20
2018-12-17T20:13:36.906Z,88.20
2018-12-17T20:15:41.398Z,88.30
2018-12-17T20:17:47.018Z,88.10
2018-12-17T20:19:52.873Z,88.20
2018-12-17T20:21:56.889Z,88.20
2018-12-17T20:24:01.810Z,88.20
2018-12-17T20:26:06.583Z,88.40
2018-12-17T20:28:11.126Z,88.00
2018-12-17T20:30:15.707Z,88.10
2018-12-17T20:32:21.040Z,88.10
2018-12-17T20:34:25.641Z,88.10
2018-12-17T20:36:30.221Z,88.30
2018-12-17T20:38:34.759Z,88.00
2018-12-17T20:40:39.962Z,88.10
2018-12-17T20:42:44.493Z,88.00
2018-12-17T20:44:49.995Z,88.00
2018-12-17T20:46:54.504Z,88.10
2018-12-17T20:48:59.123Z,87.90
2018-12-17T20:51:03.598Z,88.10
2018-12-17T20:53:08.144Z,88.10
2018-12-17T20:55:12.606Z,88.00
2018-12-17T20:57:17.068Z,87.90
2018-12-17T20:59:21.547Z,88.00
2018-12-17T21:01:26.056Z,87.90
2018-12-17T21:03:30.532Z,87.60
2018-12-17T21:05:41.899Z,87.90
2018-12-17T21:07:46.003Z,88.00
2018-12-17T21:09:50.719Z,87.90
2018-12-17T21:11:55.194Z,87.90
2018-12-17T21:13:59.739Z,87.80
2018-12-17T21:16:04.436Z,87.80
2018-12-17T21:18:08.990Z,87.90
2018-12-17T21:20:13.641Z,87.90
2018-12-17T21:22:18.162Z,87.70
2018-12-17T21:24:22.669Z,87.90
2018-12-17T21:26:27.092Z,87.90
2018-12-17T21:28:31.545Z,87.90
2018-12-17T21:30:36.053Z,87.90
2018-12-17T21:32:40.990Z,87.70
2018-12-17T21:34:45.471Z,87.80
2018-12-17T21:36:50.013Z,87.80
2018-12-17T21:38:56.125Z,87.80
2018-12-17T21:41:00.607Z,87.60
2018-12-17T21:43:05.054Z,87.60
2018-12-17T21:45:09.607Z,87.60
2018-12-17T21:47:14.088Z,87.60
2018-12-17T21:49:18.586Z,87.70
2018-12-17T21:51:23.027Z,87.80
2018-12-17T21:53:27.492Z,87.60
2018-12-17T21:55:31.996Z,87.60
2018-12-17T21:57:36.624Z,87.80
2018-12-17T21:59:41.426Z,87.80
2018-12-17T22:01:46.062Z,87.70
2018-12-17T22:03:50.595Z,87.60
2018-12-17T22:05:55.779Z,88.20
2018-12-17T22:08:00.305Z,87.70
2018-12-17T22:10:05.196Z,87.70
2018-12-17T22:12:09.690Z,87.50
2018-12-17T22:14:14.203Z,87.60
2018-12-17T22:16:18.640Z,87.50
2018-12-17T22:18:23.023Z,87.50
2018-12-17T22:20:27.701Z,87.50
2018-12-17T22:22:32.087Z,87.60
2018-12-17T22:24:36.498Z,87.60
2018-12-17T22:26:40.994Z,87.60
2018-12-17T22:28:45.360Z,87.80
2018-12-17T22:30:49.823Z,87.90
2018-12-17T22:32:54.223Z,87.80
2018-12-17T22:34:59.419Z,87.70
2018-12-17T22:37:03.897Z,87.70
2018-12-17T22:39:08.339Z,87.70
2018-12-17T22:41:13.740Z,87.60
2018-12-17T22:43:18.211Z,87.80
2018-12-17T22:45:22.583Z,87.60
2018-12-17T22:47:27.205Z,87.70
2018-12-17T22:49:31.581Z,87.70
2018-12-17T22:51:35.998Z,87.50
2018-12-17T22:53:40.403Z,87.80
2018-12-17T22:55:44.839Z,87.70
2018-12-17T22:57:49.182Z,87.90
2018-12-17T22:59:53.665Z,87.60
2018-12-17T23:01:58.248Z,87.40
2018-12-17T23:04:02.635Z,87.70
2018-12-17T23:06:07.026Z,87.90
2018-12-17T23:08:11.433Z,87.70
2018-12-17T23:10:27.677Z,87.40
2018-12-17T23:12:42.962Z,87.80
2018-12-17T23:14:59.023Z,87.70
2018-12-17T23:17:14.519Z,87.80
2018-12-17T23:19:17.669Z,87.60
2018-12-17T23:21:22.333Z,87.60
2018-12-17T23:23:26.757Z,87.70
2018-12-17T23:25:31.266Z,87.70
2018-12-17T23:27:36.177Z,87.70
2018-12-17T23:29:40.589Z,87.60
2018-12-17T23:31:52.155Z,87.60
2018-12-17T23:33:56.654Z,87.40
2018-12-17T23:36:01.295Z,87.30
2018-12-17T23:38:05.732Z,87.40
2018-12-17T23:40:10.419Z,87.70
2018-12-17T23:42:18.345Z,87.70
2018-12-17T23:44:23.256Z,87.70
2018-12-17T23:46:27.729Z,87.90
2018-12-17T23:48:32.155Z,87.70
2018-12-17T23:50:36.814Z,87.60
2018-12-17T23:52:41.201Z,87.40
2018-12-17T23:54:46.109Z,87.30
2018-12-17T23:56:50.571Z,87.80
2018-12-17T23:58:54.998Z,87.30
